createdAt,value
2023-02-23T00:01:44.427Z,49.90
2023-02-23T00:04:18.743Z,50.00
2023-02-23T00:06:52.304Z,49.70
2023-02-23T00:09:28.054Z,50.00
2023-02-23T00:12:03.267Z,49.80
2023-02-23T00:14:37.631Z,50.00
2023-02-23T00:17:14.671Z,49.80
2023-02-23T00:19:49.445Z,49.90
2023-02-23T00:22:22.924Z,49.80
2023-02-23T00:24:57.838Z,49.60
2023-02-23T00:27:30.933Z,50.00
2023-02-23T00:30:04.347Z,49.90
2023-02-23T00:32:37.662Z,49.90
2023-02-23T00:35:17.186Z,50.00
2023-02-23T00:37:50.707Z,50.00
2023-02-23T00:40:25.265Z,49.80
2023-02-23T00:42:58.447Z,49.90
2023-02-23T00:45:33.892Z,49.80
2023-02-23T00:48:10.832Z,49.60
2023-02-23T00:50:45.528Z,49.70
2023-02-23T00:53:19.193Z,49.50
2023-02-23T00:55:53.700Z,49.30
2023-02-23T00:58:27.493Z,49.20
2023-02-23T01:01:00.624Z,49.40
2023-02-23T01:03:33.821Z,49.30
2023-02-23T01:06:08.054Z,49.20
2023-02-23T01:08:49.088Z,49.40
2023-02-23T01:11:27.815Z,49.50
2023-02-23T01:14:01.877Z,48.60
2023-02-23T01:16:38.920Z,49.30
2023-02-23T01:19:12.244Z,49.20
2023-02-23T01:21:45.430Z,49.20
2023-02-23T01:24:18.583Z,49.20
2023-02-23T01:26:53.862Z,49.00
2023-02-23T01:29:26.985Z,49.00
2023-02-23T01:32:01.628Z,48.70
2023-02-23T01:34:35.792Z,48.90
2023-02-23T01:37:08.929Z,49.30
2023-02-23T01:39:42.092Z,48.90
2023-02-23T01:42:17.239Z,48.60
2023-02-23T01:45:22.846Z,48.30
2023-02-23T01:47:57.748Z,48.50
2023-02-23T01:50:33.179Z,48.30
2023-02-23T01:53:06.576Z,48.30
2023-02-23T01:55:40.428Z,48.30
2023-02-23T01:58:16.421Z,48.30
2023-02-23T02:00:51.465Z,48.40
2023-02-23T02:03:29.033Z,48.30
2023-02-23T02:06:03.529Z,48.40
2023-02-23T02:08:43.798Z,48.60
2023-02-23T02:11:30.790Z,48.50
2023-02-23T02:14:12.851Z,48.60
2023-02-23T02:16:55.922Z,48.60
2023-02-23T02:19:37.140Z,48.50
2023-02-23T02:22:18.719Z,48.40
2023-02-23T02:25:06.525Z,48.50
2023-02-23T02:27:57.454Z,48.30
2023-02-23T02:30:49.640Z,48.40
2023-02-23T02:33:46.867Z,48.30
2023-02-23T02:36:39.968Z,48.30
2023-02-23T02:39:23.918Z,48.30
2023-02-23T02:42:00.671Z,48.30
2023-02-23T02:44:39.197Z,48.20
2023-02-23T02:47:17.908Z,48.20
2023-02-23T02:49:52.760Z,48.20
2023-02-23T02:52:30.762Z,48.20
2023-02-23T02:55:09.522Z,48.20
2023-02-23T02:57:46.751Z,48.20
2023-02-23T03:00:37.806Z,48.30
2023-02-23T03:03:32.412Z,48.20
2023-02-23T03:06:23.000Z,48.30
2023-02-23T03:09:19.452Z,48.30
2023-02-23T03:12:17.263Z,48.40
2023-02-23T03:15:13.743Z,48.40
2023-02-23T03:18:05.257Z,48.40
2023-02-23T03:21:00.298Z,48.30
2023-02-23T03:23:58.567Z,48.40
2023-02-23T03:26:54.132Z,48.20
2023-02-23T03:29:50.764Z,48.20
2023-02-23T03:32:45.621Z,48.20
2023-02-23T03:35:40.904Z,48.20
2023-02-23T03:38:34.563Z,48.20
2023-02-23T03:41:27.249Z,48.20
2023-02-23T03:44:21.319Z,48.30
2023-02-23T03:47:12.505Z,48.10
2023-02-23T03:50:04.152Z,48.10
2023-02-23T03:52:57.197Z,48.10
2023-02-23T03:55:49.634Z,48.20
2023-02-23T03:58:42.607Z,48.10
2023-02-23T04:01:35.167Z,48.20
2023-02-23T04:04:26.786Z,48.20
2023-02-23T04:07:19.329Z,48.10
2023-02-23T04:10:09.965Z,48.10
2023-02-23T04:13:06.046Z,48.10
2023-02-23T04:15:39.453Z,48.10
2023-02-23T04:18:15.380Z,48.10
2023-02-23T04:20:48.566Z,48.10
2023-02-23T04:23:22.912Z,48.40
2023-02-23T04:25:56.563Z,48.10
2023-02-23T04:28:29.858Z,48.10
2023-02-23T04:31:03.301Z,48.10
2023-02-23T04:33:37.781Z,48.20
2023-02-23T04:36:10.885Z,48.10
2023-02-23T04:38:44.027Z,48.10
2023-02-23T04:41:17.379Z,48.10
2023-02-23T04:43:50.666Z,48.10
2023-02-23T04:46:23.844Z,48.10
2023-02-23T04:48:58.330Z,48.10
2023-02-23T04:51:33.423Z,48.10
2023-02-23T04:54:06.564Z,48.20
2023-02-23T04:56:40.250Z,48.20
2023-02-23T04:59:13.332Z,48.20
2023-02-23T05:01:46.482Z,48.10
2023-02-23T05:04:20.917Z,48.10
2023-02-23T05:06:53.967Z,48.30
2023-02-23T05:09:27.119Z,48.20
2023-02-23T05:12:00.319Z,48.30
2023-02-23T05:14:33.391Z,48.30
2023-02-23T05:17:08.597Z,48.30
2023-02-23T05:19:43.359Z,48.30
2023-02-23T05:22:16.489Z,48.40
2023-02-23T05:24:49.699Z,48.40
2023-02-23T05:27:22.757Z,48.40
2023-02-23T05:29:55.806Z,48.40
2023-02-23T05:32:29.706Z,48.60
2023-02-23T05:35:04.591Z,48.50
2023-02-23T05:37:37.742Z,48.40
2023-02-23T05:40:11.376Z,48.40
2023-02-23T05:42:45.158Z,48.40
2023-02-23T05:45:18.302Z,48.60
2023-02-23T05:47:52.044Z,48.50
2023-02-23T05:50:26.912Z,48.40
2023-02-23T05:53:00.183Z,48.50
2023-02-23T05:55:33.271Z,48.50
2023-02-23T05:58:06.370Z,48.40
2023-02-23T06:00:39.494Z,48.40
2023-02-23T06:06:12.324Z,48.50
2023-02-23T06:08:45.920Z,48.60
2023-02-23T06:11:19.335Z,48.60
2023-02-23T06:13:52.587Z,48.60
2023-02-23T06:16:25.815Z,48.80
2023-02-23T06:18:58.951Z,48.80
2023-02-23T06:21:33.907Z,48.70
2023-02-23T06:24:07.262Z,48.80
2023-02-23T06:26:40.369Z,48.80
2023-02-23T06:29:14.675Z,48.70
2023-02-23T06:31:47.856Z,48.90
2023-02-23T06:34:20.989Z,48.80
2023-02-23T06:36:55.855Z,48.80
2023-02-23T06:39:29.319Z,48.90
2023-02-23T06:42:02.408Z,48.80
2023-02-23T06:44:35.761Z,48.80
2023-02-23T06:47:09.086Z,48.70
2023-02-23T06:49:42.253Z,48.80
2023-02-23T06:52:16.793Z,48.80
2023-02-23T06:54:50.141Z,48.90
2023-02-23T06:57:23.248Z,48.80
2023-02-23T06:59:56.907Z,48.90
2023-02-23T07:02:30.286Z,49.00
2023-02-23T07:05:03.426Z,49.40
2023-02-23T07:07:38.231Z,49.60
2023-02-23T07:10:12.442Z,49.60
2023-02-23T07:12:45.528Z,49.80
2023-02-23T07:15:20.234Z,49.90
2023-02-23T07:17:53.355Z,49.90
2023-02-23T07:20:26.595Z,50.00
2023-02-23T07:23:01.942Z,49.90
2023-02-23T07:25:35.253Z,50.20
2023-02-23T07:28:08.313Z,50.60
2023-02-23T07:30:41.711Z,50.60
2023-02-23T07:33:14.874Z,50.50
2023-02-23T07:35:48.033Z,51.40
2023-02-23T07:38:22.554Z,50.80
2023-02-23T07:40:55.869Z,50.80
2023-02-23T07:43:28.968Z,50.90
2023-02-23T07:46:02.663Z,50.90
2023-02-23T07:48:35.835Z,51.00
2023-02-23T07:51:10.207Z,51.00
2023-02-23T07:53:45.430Z,51.70
2023-02-23T07:56:18.556Z,52.20
2023-02-23T07:58:51.730Z,52.70
2023-02-23T08:01:24.972Z,52.70
2023-02-23T08:03:58.094Z,53.20
2023-02-23T08:06:31.640Z,53.00
2023-02-23T08:09:06.271Z,53.00
2023-02-23T08:11:39.547Z,53.00
2023-02-23T08:14:13.073Z,53.00
2023-02-23T08:16:46.261Z,52.90
2023-02-23T08:19:22.813Z,52.90
2023-02-23T08:21:56.468Z,53.00
2023-02-23T08:24:31.247Z,53.20
2023-02-23T08:27:05.050Z,53.30
2023-02-23T08:29:38.852Z,53.20
2023-02-23T08:32:12.271Z,53.10
2023-02-23T08:34:45.420Z,53.00
2023-02-23T08:37:18.511Z,52.90
2023-02-23T08:39:53.313Z,52.90
2023-02-23T08:42:26.650Z,53.40
2023-02-23T08:45:02.178Z,53.50
2023-02-23T08:47:36.240Z,53.30
2023-02-23T08:50:11.028Z,48.30
2023-02-23T08:52:44.229Z,37.60
2023-02-23T08:55:20.988Z,34.20
2023-02-23T08:57:54.083Z,31.70
2023-02-23T09:00:27.273Z,33.10
2023-02-23T09:03:00.387Z,35.90
2023-02-23T09:05:34.104Z,37.60
2023-02-23T09:08:07.395Z,37.80
2023-02-23T09:10:43.868Z,38.90
2023-02-23T09:13:17.293Z,39.60
2023-02-23T09:15:50.418Z,38.60
2023-02-23T09:18:24.012Z,40.00
2023-02-23T09:20:57.559Z,39.00
2023-02-23T09:23:31.509Z,40.40
2023-02-23T09:26:06.707Z,40.80
2023-02-23T09:28:41.052Z,40.90
2023-02-23T09:31:15.955Z,41.20
2023-02-23T09:33:49.388Z,41.60
2023-02-23T09:36:23.265Z,42.10
2023-02-23T09:38:57.790Z,42.20
2023-02-23T09:41:52.025Z,42.30
2023-02-23T09:44:30.649Z,42.50
2023-02-23T09:47:11.659Z,42.20
2023-02-23T09:49:45.630Z,42.50
2023-02-23T09:52:20.090Z,42.70
2023-02-23T09:54:53.378Z,43.40
2023-02-23T09:57:33.296Z,43.80
2023-02-23T10:00:14.052Z,44.20
2023-02-23T10:02:55.301Z,44.50
2023-02-23T10:05:31.779Z,44.90
2023-02-23T10:08:09.341Z,45.90
2023-02-23T10:10:45.266Z,46.30
2023-02-23T10:13:23.516Z,46.60
2023-02-23T10:15:59.220Z,46.90
2023-02-23T10:18:46.119Z,46.90
2023-02-23T10:21:23.062Z,46.80
2023-02-23T10:23:59.373Z,47.00
2023-02-23T10:26:35.327Z,46.80
2023-02-23T10:29:16.476Z,46.10
2023-02-23T10:31:51.005Z,46.00
2023-02-23T10:34:25.396Z,45.80
2023-02-23T10:37:02.212Z,45.70
2023-02-23T10:39:35.277Z,45.60
2023-02-23T10:42:13.218Z,45.50
2023-02-23T10:44:48.028Z,45.50
2023-02-23T10:47:22.501Z,45.70
2023-02-23T10:49:56.190Z,45.80
2023-02-23T10:52:32.587Z,45.90
2023-02-23T10:55:06.254Z,45.60
2023-02-23T10:57:41.381Z,46.00
2023-02-23T11:00:32.893Z,46.10
2023-02-23T11:03:19.066Z,46.30
2023-02-23T11:05:53.693Z,46.20
2023-02-23T11:08:29.319Z,46.30
2023-02-23T11:11:04.473Z,46.50
2023-02-23T11:13:39.349Z,46.30
2023-02-23T11:16:14.657Z,46.50
2023-02-23T11:18:51.672Z,46.50
2023-02-23T11:21:26.019Z,46.50
2023-02-23T11:24:00.254Z,46.60
2023-02-23T11:26:37.326Z,46.80
2023-02-23T11:29:15.585Z,46.50
2023-02-23T11:31:51.666Z,46.70
2023-02-23T11:34:28.949Z,47.20
2023-02-23T11:37:04.501Z,46.70
2023-02-23T11:39:38.601Z,47.00
2023-02-23T11:42:15.934Z,47.10
2023-02-23T11:44:53.093Z,47.10
2023-02-23T11:47:27.631Z,47.20
2023-02-23T11:50:01.190Z,47.10
2023-02-23T11:52:36.448Z,47.20
2023-02-23T11:55:17.129Z,47.30
2023-02-23T11:57:50.389Z,47.30
2023-02-23T12:00:25.295Z,47.20
2023-02-23T12:03:01.481Z,47.30
2023-02-23T12:05:34.769Z,47.30
2023-02-23T12:08:10.709Z,47.30
2023-02-23T12:10:45.218Z,47.40
2023-02-23T12:13:26.732Z,47.50
2023-02-23T12:16:01.537Z,47.50
2023-02-23T12:18:41.751Z,47.40
2023-02-23T12:21:18.444Z,47.40
2023-02-23T12:23:53.192Z,47.40
2023-02-23T12:26:26.846Z,47.50
2023-02-23T12:29:02.569Z,47.60
2023-02-23T12:31:40.406Z,47.80
2023-02-23T12:34:19.022Z,48.00
2023-02-23T12:36:54.961Z,48.30
2023-02-23T12:39:30.803Z,48.00
2023-02-23T12:42:13.924Z,49.00
2023-02-23T12:44:50.578Z,49.00
2023-02-23T12:47:26.995Z,49.70
2023-02-23T12:50:07.341Z,50.20
2023-02-23T12:55:36.545Z,50.70
2023-02-23T12:58:14.998Z,50.90
2023-02-23T13:00:52.886Z,51.00
2023-02-23T13:03:34.353Z,51.10
2023-02-23T13:06:11.863Z,51.00
2023-02-23T13:08:55.203Z,50.80
2023-02-23T13:11:35.308Z,51.10
2023-02-23T13:14:14.193Z,50.70
2023-02-23T13:16:49.752Z,51.90
2023-02-23T13:19:24.788Z,51.60
2023-02-23T13:22:00.868Z,51.60
2023-02-23T13:24:37.300Z,51.80
2023-02-23T13:27:17.179Z,51.80
2023-02-23T13:29:52.671Z,52.00
2023-02-23T13:32:29.411Z,51.90
2023-02-23T13:35:03.160Z,51.50
2023-02-23T13:37:46.580Z,51.40
2023-02-23T13:40:29.116Z,51.40
2023-02-23T13:43:09.866Z,51.30
2023-02-23T13:45:48.749Z,51.30
2023-02-23T13:48:29.040Z,51.20
2023-02-23T13:51:04.537Z,51.20
2023-02-23T13:53:39.821Z,51.10
2023-02-23T13:56:17.062Z,50.80
2023-02-23T13:58:53.489Z,50.90
2023-02-23T14:01:28.738Z,50.30
2023-02-23T14:04:03.514Z,50.00
2023-02-23T14:06:36.653Z,50.30
2023-02-23T14:09:12.392Z,50.20
2023-02-23T14:11:49.876Z,50.00
2023-02-23T14:14:44.371Z,50.00
2023-02-23T14:17:50.668Z,49.90
2023-02-23T14:20:41.504Z,50.00
2023-02-23T14:23:16.694Z,49.80
2023-02-23T14:25:51.709Z,49.90
2023-02-23T14:28:27.585Z,49.80
2023-02-23T14:31:03.835Z,49.70
2023-02-23T14:33:39.087Z,49.70
2023-02-23T14:36:27.005Z,49.80
2023-02-23T14:39:01.347Z,49.90
2023-02-23T14:41:37.962Z,50.00
2023-02-23T14:44:27.231Z,50.20
2023-02-23T14:47:05.115Z,50.30
2023-02-23T14:49:40.736Z,50.40
2023-02-23T14:52:16.259Z,50.90
2023-02-23T14:54:49.459Z,50.30
2023-02-23T14:57:23.343Z,50.40
2023-02-23T14:59:59.031Z,50.40
2023-02-23T15:02:35.476Z,50.40
2023-02-23T15:05:18.192Z,50.50
2023-02-23T15:07:52.006Z,50.60
2023-02-23T15:10:27.324Z,50.50
2023-02-23T15:13:02.215Z,50.70
2023-02-23T15:15:35.488Z,50.60
2023-02-23T15:18:15.683Z,50.70
2023-02-23T15:20:49.051Z,50.50
2023-02-23T15:23:22.262Z,50.30
2023-02-23T15:25:55.433Z,50.30
2023-02-23T15:28:29.605Z,49.80
2023-02-23T15:31:04.832Z,49.60
2023-02-23T15:33:39.588Z,49.60
2023-02-23T15:36:17.008Z,49.80
2023-02-23T15:38:51.581Z,49.70
2023-02-23T15:41:28.637Z,49.40
2023-02-23T15:44:04.553Z,49.30
2023-02-23T15:46:37.989Z,49.50
2023-02-23T15:49:14.332Z,49.60
2023-02-23T15:51:49.676Z,49.40
2023-02-23T15:54:25.236Z,50.00
2023-02-23T15:56:59.204Z,50.30
2023-02-23T15:59:35.836Z,50.20
2023-02-23T16:02:14.728Z,50.30
2023-02-23T16:04:50.059Z,50.20
2023-02-23T16:07:23.965Z,50.10
2023-02-23T16:10:03.549Z,49.90
2023-02-23T16:12:38.274Z,50.00
2023-02-23T16:15:22.160Z,50.00
2023-02-23T16:17:58.845Z,50.00
2023-02-23T16:20:36.807Z,49.80
2023-02-23T16:23:17.748Z,49.20
2023-02-23T16:25:54.409Z,49.30
2023-02-23T16:28:29.225Z,49.40
2023-02-23T16:31:04.281Z,49.30
2023-02-23T16:33:42.688Z,49.40
2023-02-23T16:36:20.316Z,49.50
2023-02-23T16:39:00.879Z,49.60
2023-02-23T16:41:35.176Z,49.80
2023-02-23T16:44:08.861Z,49.80
2023-02-23T16:46:56.433Z,50.00
2023-02-23T16:49:30.553Z,50.00
2023-02-23T16:52:12.744Z,50.20
2023-02-23T16:54:48.452Z,50.20
2023-02-23T16:57:25.534Z,50.40
2023-02-23T16:59:58.682Z,50.40
2023-02-23T17:02:32.172Z,50.50
2023-02-23T17:05:13.457Z,50.40
2023-02-23T17:07:48.660Z,50.40
2023-02-23T17:10:26.205Z,50.50
2023-02-23T17:13:02.541Z,50.60
2023-02-23T17:15:36.825Z,50.60
2023-02-23T17:18:09.950Z,50.50
2023-02-23T17:20:43.118Z,50.60
2023-02-23T17:23:17.644Z,50.80
2023-02-23T17:25:50.788Z,51.20
2023-02-23T17:28:23.983Z,51.00
2023-02-23T17:30:57.055Z,51.30
2023-02-23T17:33:33.632Z,51.60
2023-02-23T17:36:07.838Z,51.70
2023-02-23T17:38:44.822Z,52.00
2023-02-23T17:41:19.179Z,52.10
2023-02-23T17:43:52.509Z,52.00
2023-02-23T17:46:25.727Z,52.10
2023-02-23T17:48:58.949Z,51.70
2023-02-23T17:51:32.075Z,51.60
2023-02-23T17:54:06.554Z,51.60
2023-02-23T17:56:39.849Z,51.40
2023-02-23T17:59:12.940Z,51.40
2023-02-23T18:01:47.438Z,51.70
2023-02-23T18:04:21.723Z,51.70
2023-02-23T18:06:56.657Z,51.30
2023-02-23T18:09:31.265Z,50.70
2023-02-23T18:12:04.744Z,50.60
2023-02-23T18:14:38.654Z,50.50
2023-02-23T18:17:11.876Z,49.90
2023-02-23T18:19:46.965Z,50.00
2023-02-23T18:22:21.065Z,49.80
2023-02-23T18:24:57.223Z,49.60
2023-02-23T18:27:30.448Z,49.40
2023-02-23T18:30:04.092Z,49.80
2023-02-23T18:32:37.485Z,49.00
2023-02-23T18:35:10.811Z,48.90
2023-02-23T18:37:44.010Z,48.60
2023-02-23T18:40:23.868Z,48.60
2023-02-23T18:42:57.454Z,48.40
2023-02-23T18:45:30.805Z,48.20
2023-02-23T18:48:04.214Z,47.90
2023-02-23T18:50:37.646Z,47.70
2023-02-23T18:53:11.015Z,47.40
2023-02-23T18:55:45.995Z,47.30
2023-02-23T18:58:19.817Z,47.50
2023-02-23T19:00:55.090Z,47.20
2023-02-23T19:03:28.440Z,47.40
2023-02-23T19:06:01.556Z,47.20
2023-02-23T19:08:34.686Z,46.90
2023-02-23T19:11:09.345Z,46.40
2023-02-23T19:13:42.438Z,46.80
2023-02-23T19:16:16.088Z,46.50
2023-02-23T19:18:49.528Z,46.70
2023-02-23T19:21:23.434Z,46.90
2023-02-23T19:23:58.115Z,46.90
2023-02-23T19:26:33.606Z,47.00
2023-02-23T19:29:06.826Z,47.00
2023-02-23T19:31:40.062Z,47.10
2023-02-23T19:34:15.309Z,47.20
2023-02-23T19:36:49.237Z,47.20
2023-02-23T19:39:22.352Z,47.30
2023-02-23T19:41:56.830Z,47.30
2023-02-23T19:44:30.240Z,47.30
2023-02-23T19:47:03.462Z,47.30
2023-02-23T19:49:36.656Z,47.40
2023-02-23T19:52:09.815Z,47.50
2023-02-23T19:54:44.684Z,47.40
2023-02-23T19:57:20.640Z,47.40
2023-02-23T19:59:53.767Z,47.50
2023-02-23T20:02:27.336Z,47.50
2023-02-23T20:05:00.536Z,47.60
2023-02-23T20:07:33.669Z,47.70
2023-02-23T20:10:08.391Z,47.70
2023-02-23T20:12:43.172Z,47.70
2023-02-23T20:15:16.315Z,47.70
2023-02-23T20:17:49.523Z,47.80
2023-02-23T20:20:25.616Z,48.00
2023-02-23T20:22:58.734Z,47.80
2023-02-23T20:25:31.827Z,47.90
2023-02-23T20:28:07.911Z,47.90
2023-02-23T20:30:41.108Z,47.90
2023-02-23T20:33:15.182Z,47.90
2023-02-23T20:35:48.353Z,48.10
2023-02-23T20:38:21.880Z,48.30
2023-02-23T20:40:55.022Z,49.20
2023-02-23T20:43:29.599Z,49.80
2023-02-23T20:46:03.053Z,50.10
2023-02-23T20:48:36.659Z,50.20
2023-02-23T20:51:12.873Z,50.20
2023-02-23T20:53:46.704Z,50.30
2023-02-23T20:56:23.309Z,50.30
2023-02-23T20:58:57.787Z,50.30
2023-02-23T21:01:31.870Z,50.30
2023-02-23T21:04:05.232Z,50.40
2023-02-23T21:06:38.418Z,50.50
2023-02-23T21:09:18.016Z,50.30
2023-02-23T21:11:51.320Z,50.50
2023-02-23T21:14:25.824Z,50.50
2023-02-23T21:16:58.931Z,50.50
2023-02-23T21:19:32.076Z,50.50
2023-02-23T21:22:05.169Z,50.40
2023-02-23T21:24:41.080Z,50.40
2023-02-23T21:27:14.306Z,50.30
2023-02-23T21:29:48.752Z,50.70
2023-02-23T21:32:22.417Z,50.00
2023-02-23T21:34:55.655Z,49.80
2023-02-23T21:37:28.725Z,49.80
2023-02-23T21:40:02.251Z,50.10
2023-02-23T21:42:36.550Z,50.30
2023-02-23T21:45:12.319Z,50.30
2023-02-23T21:47:46.738Z,50.40
2023-02-23T21:50:20.733Z,50.70
2023-02-23T21:52:57.797Z,50.70
2023-02-23T21:55:31.390Z,50.60
2023-02-23T21:58:05.821Z,50.60
2023-02-23T22:00:40.481Z,50.60
2023-02-23T22:03:16.246Z,50.70
2023-02-23T22:05:49.365Z,50.70
2023-02-23T22:08:22.472Z,50.80
2023-02-23T22:10:55.545Z,50.80
2023-02-23T22:13:28.632Z,50.80
2023-02-23T22:16:03.268Z,50.80
2023-02-23T22:18:36.454Z,50.80
2023-02-23T22:21:11.705Z,50.70
2023-02-23T22:23:47.829Z,50.90
2023-02-23T22:26:20.964Z,50.90
2023-02-23T22:28:54.056Z,50.90
2023-02-23T22:31:28.833Z,50.90
2023-02-23T22:34:02.019Z,51.00
2023-02-23T22:36:35.314Z,50.90
2023-02-23T22:39:09.951Z,51.10
2023-02-23T22:41:43.260Z,51.10
2023-02-23T22:44:17.677Z,51.20
2023-02-23T22:46:53.169Z,51.10
2023-02-23T22:49:26.993Z,51.30
2023-02-23T22:52:00.653Z,51.30
2023-02-23T22:54:35.332Z,51.30
2023-02-23T22:57:09.071Z,51.40
2023-02-23T22:59:54.481Z,51.40
2023-02-23T23:02:32.101Z,52.10
2023-02-23T23:05:05.585Z,51.50
2023-02-23T23:07:38.698Z,51.50
2023-02-23T23:10:12.691Z,51.60
2023-02-23T23:12:46.656Z,51.60
2023-02-23T23:15:20.088Z,51.60
2023-02-23T23:17:54.505Z,51.70
2023-02-23T23:20:27.602Z,51.70
2023-02-23T23:23:00.688Z,51.70
2023-02-23T23:25:33.913Z,51.70
2023-02-23T23:28:07.011Z,51.70
2023-02-23T23:30:41.725Z,51.60
2023-02-23T23:33:16.157Z,51.70
2023-02-23T23:35:50.116Z,51.30
2023-02-23T23:38:23.226Z,51.10
2023-02-23T23:40:57.289Z,51.40
2023-02-23T23:43:30.409Z,51.80
2023-02-23T23:46:05.312Z,51.80
2023-02-23T23:48:42.044Z,51.90
2023-02-23T23:51:15.845Z,52.00
2023-02-23T23:53:51.958Z,52.00
2023-02-23T23:56:25.436Z,52.00
2023-02-23T23:58:59.386Z,52.10
